Time;durP1;ratioP1;P1;durP2;ratioP2;P2;SDS_P1;SDS_P2;PMS_P1;PMS_P2;Temp;Humidity;BMP_temperature;BMP_pressure;BME280_temperature;BME280_humidity;BME280_pressure;Samples;Min_cycle;Max_cycle;Signal;HPM_P1;HPM_P2
2021/07/22 00:00:55;;;;;;;12.98;8.27;;;;;;;;;;6167781;28;20090;-65
2021/07/22 00:03:58;;;;;;;14.20;8.40;;;;;;;;;;6177334;28;20050;-65
2021/07/22 00:07:00;;;;;;;12.63;8.07;;;;;;;;;;6169022;28;20049;-66
2021/07/22 00:10:02;;;;;;;12.82;8.13;;;;;;;;;;6186709;28;20185;-65
2021/07/22 00:13:03;;;;;;;12.50;8.25;;;;;;;;;;6174878;28;20512;-66
2021/07/22 00:16:05;;;;;;;21.92;8.88;;;;;;;;;;6175206;28;20122;-67
2021/07/22 00:19:08;;;;;;;15.60;7.82;;;;;;;;;;6188055;28;20770;-65
2021/07/22 00:22:10;;;;;;;14.32;8.05;;;;;;;;;;6183769;28;20104;-65
2021/07/22 00:25:12;;;;;;;10.38;7.53;;;;;;;;;;6185813;28;20051;-68
2021/07/22 00:28:14;;;;;;;16.50;7.53;;;;;;;;;;6191076;28;20045;-66
2021/07/22 00:31:16;;;;;;;13.82;7.57;;;;;;;;;;6177489;28;20066;-65
2021/07/22 00:34:19;;;;;;;13.77;7.82;;;;;;;;;;6189839;28;20046;-68
2021/07/22 00:37:21;;;;;;;13.35;8.07;;;;;;;;;;6180641;28;20598;-65
2021/07/22 00:40:22;;;;;;;14.45;8.02;;;;;;;;;;6185691;28;20057;-69
2021/07/22 00:43:24;;;;;;;11.88;7.00;;;;;;;;;;6188709;28;20148;-65
2021/07/22 00:46:26;;;;;;;10.35;7.20;;;;;;;;;;6175834;28;20129;-68
2021/07/22 00:49:29;;;;;;;13.63;7.63;;;;;;;;;;6186140;28;20074;-70
2021/07/22 00:52:31;;;;;;;13.65;7.07;;;;;;;;;;6178097;28;20406;-68
2021/07/22 00:55:33;;;;;;;11.27;6.88;;;;;;;;;;6179024;28;20069;-68
2021/07/22 00:58:37;;;;;;;15.07;8.18;;;;;;;;;;6192284;28;20053;-66
2021/07/22 01:01:40;;;;;;;10.15;6.63;;;;;;;;;;6168015;28;20039;-68
2021/07/22 01:05:11;;;;;;;;;;;;;;;;;;;;;
2021/07/22 01:08:46;;;;;;;14.05;7.00;;;;;;;;;;6166514;28;20542;-65
2021/07/22 01:11:48;;;;;;;12.57;7.65;;;;;;;;;;6172336;28;20065;-65
2021/07/22 01:14:50;;;;;;;9.18;7.22;;;;;;;;;;6183274;28;20054;-66
2021/07/22 01:17:52;;;;;;;11.88;7.32;;;;;;;;;;6164206;28;20532;-65
2021/07/22 01:20:55;;;;;;;12.27;7.00;;;;;;;;;;6180043;28;20536;-71
2021/07/22 01:23:57;;;;;;;;;;;;;;;;;;6191618;28;20050;-66
2021/07/22 01:26:59;;;;;;;11.55;6.63;;;;;;;;;;6182751;28;19932;-66
2021/07/22 01:30:00;;;;;;;10.10;7.28;;;;;;;;;;6190385;28;20053;-69
2021/07/22 01:33:02;;;;;;;12.25;6.55;;;;;;;;;;6175776;28;20120;-65
2021/07/22 01:36:06;;;;;;;10.23;6.35;;;;;;;;;;6167870;28;20055;-65
2021/07/22 01:39:07;;;;;;;12.20;6.03;;;;;;;;;;6190058;28;20405;-65
2021/07/22 01:42:09;;;;;;;11.18;6.55;;;;;;;;;;6177928;28;20133;-65
2021/07/22 01:45:12;;;;;;;9.02;5.80;;;;;;;;;;6183716;28;20054;-65
2021/07/22 01:48:14;;;;;;;11.00;5.95;;;;;;;;;;6180439;28;20053;-66
2021/07/22 01:51:17;;;;;;;9.18;5.95;;;;;;;;;;6175112;28;20062;-65
2021/07/22 01:54:18;;;;;;;;;;;;;;;;;;6191904;28;20050;-66
2021/07/22 01:57:20;;;;;;;9.23;5.55;;;;;;;;;;6178967;28;19946;-65
2021/07/22 02:00:22;;;;;;;11.60;6.32;;;;;;;;;;6184967;28;20461;-67
2021/07/22 02:03:24;;;;;;;11.30;5.47;;;;;;;;;;6180158;28;20090;-66
2021/07/22 02:06:27;;;;;;;10.88;5.65;;;;;;;;;;6179511;28;20046;-66
2021/07/22 02:09:29;;;;;;;;;;;;;;;;;;6190079;28;20053;-68
2021/07/22 02:12:30;;;;;;;9.80;5.75;;;;;;;;;;6182958;28;19975;-66
2021/07/22 02:15:32;;;;;;;8.02;5.53;;;;;;;;;;6181237;28;20202;-69
2021/07/22 02:18:34;;;;;;;11.13;5.80;;;;;;;;;;6181973;28;20054;-67
2021/07/22 02:21:39;;;;;;;9.35;5.65;;;;;;;;;;6180357;28;20050;-66
2021/07/22 02:24:40;;;;;;;15.55;5.93;;;;;;;;;;6183690;28;20506;-65
2021/07/22 02:27:42;;;;;;;12.48;6.53;;;;;;;;;;6187967;28;20426;-66
2021/07/22 02:30:44;;;;;;;8.50;6.03;;;;;;;;;;6181486;28;20043;-67
2021/07/22 02:33:46;;;;;;;9.35;6.20;;;;;;;;;;6178811;28;20042;-65
2021/07/22 02:36:49;;;;;;;10.85;6.53;;;;;;;;;;6174245;28;20051;-65
2021/07/22 02:39:50;;;;;;;10.60;5.57;;;;;;;;;;6188169;28;20101;-66
2021/07/22 02:42:55;;;;;;;10.82;5.97;;;;;;;;;;6182285;28;20426;-65
2021/07/22 02:45:57;;;;;;;9.10;6.38;;;;;;;;;;6177414;28;20057;-65
2021/07/22 02:49:00;;;;;;;9.30;5.65;;;;;;;;;;6167085;28;20054;-66
2021/07/22 02:52:05;;;;;;;11.65;6.13;;;;;;;;;;6175572;28;20129;-65
2021/07/22 02:55:07;;;;;;;9.38;5.45;;;;;;;;;;6184182;28;20140;-71
2021/07/22 02:58:09;;;;;;;10.52;5.35;;;;;;;;;;6177165;28;20077;-66
2021/07/22 03:01:11;;;;;;;12.50;6.00;;;;;;;;;;6176262;28;20050;-65
2021/07/22 03:04:13;;;;;;;12.32;6.18;;;;;;;;;;6185197;28;20125;-68
2021/07/22 03:07:16;;;;;;;11.63;5.90;;;;;;;;;;6176782;28;20047;-68
2021/07/22 03:10:18;;;;;;;;;;;;;;;;;;6184466;28;20058;-67
2021/07/22 03:13:20;;;;;;;10.05;6.00;;;;;;;;;;6183512;28;19925;-66
2021/07/22 03:16:21;;;;;;;12.00;6.55;;;;;;;;;;6177761;28;20078;-66
2021/07/22 03:19:23;;;;;;;8.48;5.53;;;;;;;;;;6183694;28;20121;-66
2021/07/22 03:22:26;;;;;;;10.73;5.88;;;;;;;;;;6174359;28;20070;-70
2021/07/22 03:25:30;;;;;;;;;;;;;;;;;;6182103;28;20110;-66
2021/07/22 03:28:32;;;;;;;;;;;;;;;;;;6189368;28;19922;-65
2021/07/22 03:31:33;;;;;;;13.02;5.70;;;;;;;;;;6175856;28;19965;-67
2021/07/22 03:34:35;;;;;;;12.10;6.15;;;;;;;;;;6187225;28;20042;-66
2021/07/22 03:37:38;;;;;;;11.73;5.55;;;;;;;;;;6177457;28;20594;-66
2021/07/22 03:40:40;;;;;;;8.98;6.22;;;;;;;;;;6177641;28;20046;-68
2021/07/22 03:43:42;;;;;;;16.33;6.22;;;;;;;;;;6178749;28;20128;-66
2021/07/22 03:46:44;;;;;;;11.20;5.57;;;;;;;;;;6177457;28;20082;-67
2021/07/22 03:49:46;;;;;;;14.10;5.82;;;;;;;;;;6185853;28;20409;-67
2021/07/22 03:52:54;;;;;;;10.38;5.20;;;;;;;;;;6173439;28;20100;-67
2021/07/22 03:55:56;;;;;;;9.88;6.38;;;;;;;;;;6182435;28;20069;-65
2021/07/22 03:58:57;;;;;;;10.32;5.88;;;;;;;;;;6181339;28;20133;-65
2021/07/22 04:02:02;;;;;;;10.15;5.30;;;;;;;;;;6174383;28;20059;-65
2021/07/22 04:05:04;;;;;;;8.60;5.47;;;;;;;;;;6181251;28;20384;-69
2021/07/22 04:08:07;;;;;;;10.95;5.53;;;;;;;;;;6174107;28;20125;-65
2021/07/22 04:11:08;;;;;;;;;;;;;;;;;;6178413;28;20086;-65
2021/07/22 04:14:10;;;;;;;9.27;5.60;;;;;;;;;;6189833;28;19964;-66
2021/07/22 04:17:15;;;;;;;10.60;6.65;;;;;;;;;;6174336;28;20474;-66
2021/07/22 04:20:17;;;;;;;10.18;5.57;;;;;;;;;;6181573;28;20046;-68
2021/07/22 04:23:20;;;;;;;8.18;5.80;;;;;;;;;;6183094;28;20054;-65
2021/07/22 04:26:22;;;;;;;12.02;5.82;;;;;;;;;;6178217;28;20061;-65
2021/07/22 04:29:24;;;;;;;14.23;5.88;;;;;;;;;;6189430;28;20108;-67
2021/07/22 04:32:26;;;;;;;9.55;6.30;;;;;;;;;;6171740;28;20148;-66
2021/07/22 04:35:28;;;;;;;9.18;6.30;;;;;;;;;;6173710;28;20145;-66
2021/07/22 04:39:07;;;;;;;10.00;6.22;;;;;;;;;;6186427;28;20054;-66
2021/07/22 04:42:09;;;;;;;9.18;6.10;;;;;;;;;;6180084;28;20141;-69
2021/07/22 04:45:13;;;;;;;12.63;6.50;;;;;;;;;;6188162;28;20046;-69
2021/07/22 04:48:14;;;;;;;8.25;6.03;;;;;;;;;;6180245;28;20054;-65
2021/07/22 04:51:16;;;;;;;16.08;6.05;;;;;;;;;;6176244;28;20046;-68
2021/07/22 04:54:19;;;;;;;11.73;6.40;;;;;;;;;;6185426;28;20077;-67
2021/07/22 04:57:21;;;;;;;8.13;5.63;;;;;;;;;;6184557;28;20042;-66
2021/07/22 05:00:23;;;;;;;11.82;6.68;;;;;;;;;;6186356;28;20050;-69
2021/07/22 05:03:24;;;;;;;11.25;7.43;;;;;;;;;;6184612;28;20057;-66
2021/07/22 05:06:26;;;;;;;12.43;6.57;;;;;;;;;;6183388;28;20065;-65
2021/07/22 05:09:30;;;;;;;13.43;6.97;;;;;;;;;;6190955;28;20042;-65
2021/07/22 05:12:31;;;;;;;13.73;7.80;;;;;;;;;;6185928;28;20422;-64
2021/07/22 05:15:33;;;;;;;13.20;8.32;;;;;;;;;;6183110;28;20157;-66
2021/07/22 05:18:35;;;;;;;14.85;7.93;;;;;;;;;;6185699;28;20422;-66
2021/07/22 05:21:37;;;;;;;12.90;7.57;;;;;;;;;;6182098;28;20615;-66
2021/07/22 05:24:40;;;;;;;12.75;8.07;;;;;;;;;;6192992;28;20097;-65
2021/07/22 05:27:42;;;;;;;13.40;8.50;;;;;;;;;;6182648;28;20045;-63
2021/07/22 05:30:44;;;;;;;14.02;8.57;;;;;;;;;;6180226;28;20136;-65
2021/07/22 05:33:45;;;;;;;14.82;8.57;;;;;;;;;;6185764;28;20050;-64
2021/07/22 05:36:47;;;;;;;14.02;8.38;;;;;;;;;;6180095;28;20112;-65
2021/07/22 05:39:50;;;;;;;13.75;8.63;;;;;;;;;;6190067;28;20191;-65
2021/07/22 05:42:52;;;;;;;15.50;9.40;;;;;;;;;;6187165;28;20050;-64
2021/07/22 05:45:54;;;;;;;14.32;9.77;;;;;;;;;;6182189;28;20065;-64
2021/07/22 05:48:56;;;;;;;16.63;8.50;;;;;;;;;;6187303;28;20136;-65
2021/07/22 05:51:58;;;;;;;15.73;9.82;;;;;;;;;;6184293;28;20054;-65
2021/07/22 05:55:01;;;;;;;13.70;9.73;;;;;;;;;;6187397;28;20434;-64
2021/07/22 05:58:03;;;;;;;13.18;9.60;;;;;;;;;;6181031;28;20050;-64
2021/07/22 06:01:06;;;;;;;17.25;9.07;;;;;;;;;;6179087;28;20053;-65
2021/07/22 06:04:08;;;;;;;15.95;9.88;;;;;;;;;;6189761;28;20058;-64
2021/07/22 06:07:09;;;;;;;18.13;9.48;;;;;;;;;;6176741;28;20051;-64
2021/07/22 06:10:13;;;;;;;14.63;9.38;;;;;;;;;;6185972;28;20046;-65
2021/07/22 06:13:15;;;;;;;11.30;8.48;;;;;;;;;;6184590;28;20181;-65
2021/07/22 06:16:17;;;;;;;12.82;8.00;;;;;;;;;;6178987;28;20054;-65
2021/07/22 06:19:19;;;;;;;16.40;9.48;;;;;;;;;;6188091;28;20045;-65
2021/07/22 06:22:20;;;;;;;12.30;8.88;;;;;;;;;;6180309;28;20057;-65
2021/07/22 06:25:24;;;;;;;14.63;8.82;;;;;;;;;;6181557;28;20181;-70
2021/07/22 06:28:26;;;;;;;15.10;8.18;;;;;;;;;;6188809;28;20120;-65
2021/07/22 06:31:28;;;;;;;19.13;8.43;;;;;;;;;;6179777;28;20053;-65
2021/07/22 06:34:39;;;;;;;9.50;7.38;;;;;;;;;;6187629;28;20061;-65
2021/07/22 06:37:45;;;;;;;10.18;7.28;;;;;;;;;;6176751;28;20038;-65
2021/07/22 06:40:49;;;;;;;14.50;7.30;;;;;;;;;;6178610;28;20046;-66
2021/07/22 06:43:50;;;;;;;13.30;6.75;;;;;;;;;;6189007;28;20046;-65
2021/07/22 06:46:52;;;;;;;10.40;7.15;;;;;;;;;;6177731;28;20161;-68
2021/07/22 06:49:54;;;;;;;16.30;7.28;;;;;;;;;;6187617;28;20053;-66
2021/07/22 06:52:56;;;;;;;10.90;7.07;;;;;;;;;;6180011;28;20158;-70
2021/07/22 06:56:00;;;;;;;15.30;7.00;;;;;;;;;;6182074;28;20058;-65
2021/07/22 06:59:01;;;;;;;11.93;7.15;;;;;;;;;;6178147;28;22056;-69
2021/07/22 07:02:04;;;;;;;10.95;6.95;;;;;;;;;;6176784;28;20050;-67
2021/07/22 07:05:06;;;;;;;12.73;7.30;;;;;;;;;;6184478;28;20426;-68
2021/07/22 07:08:08;;;;;;;14.13;6.73;;;;;;;;;;6184362;28;20050;-64
2021/07/22 07:11:11;;;;;;;12.82;7.00;;;;;;;;;;6180494;28;20471;-66
2021/07/22 07:14:13;;;;;;;11.05;6.97;;;;;;;;;;6189086;28;20384;-64
2021/07/22 07:17:14;;;;;;;15.45;8.45;;;;;;;;;;6174793;28;20058;-69
2021/07/22 07:20:16;;;;;;;12.25;7.97;;;;;;;;;;6178770;28;20062;-71
2021/07/22 07:23:18;;;;;;;11.57;7.18;;;;;;;;;;6182916;28;20047;-65
2021/07/22 07:26:21;;;;;;;12.40;6.72;;;;;;;;;;6181506;28;20054;-65
2021/07/22 07:29:23;;;;;;;13.15;7.57;;;;;;;;;;6190410;28;20053;-66
2021/07/22 07:32:25;;;;;;;13.85;6.60;;;;;;;;;;6172751;28;20054;-64
2021/07/22 07:35:27;;;;;;;11.98;7.70;;;;;;;;;;6176622;28;20042;-69
2021/07/22 07:38:28;;;;;;;10.45;6.40;;;;;;;;;;6187605;28;20065;-65
2021/07/22 07:41:32;;;;;;;10.07;7.38;;;;;;;;;;6178688;28;20061;-65
2021/07/22 07:44:33;;;;;;;13.15;7.13;;;;;;;;;;6189329;28;20449;-69
2021/07/22 07:47:35;;;;;;;11.75;7.05;;;;;;;;;;6172820;28;20043;-68
2021/07/22 07:50:37;;;;;;;10.60;6.95;;;;;;;;;;6177917;28;20090;-65
2021/07/22 07:53:39;;;;;;;9.52;6.18;;;;;;;;;;6189578;28;20127;-67
2021/07/22 07:56:42;;;;;;;14.57;6.80;;;;;;;;;;6182203;28;20129;-65
2021/07/22 07:59:46;;;;;;;10.20;6.45;;;;;;;;;;6187168;28;20473;-65
2021/07/22 08:02:53;;;;;;;12.10;6.78;;;;;;;;;;6165382;28;20081;-65
2021/07/22 08:05:55;;;;;;;9.82;6.50;;;;;;;;;;6171238;28;20077;-70
2021/07/22 08:08:59;;;;;;;10.32;6.05;;;;;;;;;;6184170;28;20110;-67
2021/07/22 08:12:02;;;;;;;11.30;6.60;;;;;;;;;;6179392;28;20046;-66
2021/07/22 08:15:05;;;;;;;8.38;6.32;;;;;;;;;;6187291;28;20061;-67
2021/07/22 08:18:07;;;;;;;13.18;6.57;;;;;;;;;;6174838;28;20046;-65
2021/07/22 08:21:09;;;;;;;12.95;6.97;;;;;;;;;;6175160;28;20050;-66
2021/07/22 08:24:12;;;;;;;14.02;7.28;;;;;;;;;;6184623;28;20192;-65
2021/07/22 08:27:16;;;;;;;12.35;6.82;;;;;;;;;;6180301;28;20078;-65
2021/07/22 08:30:18;;;;;;;14.75;6.30;;;;;;;;;;6150449;28;20890;-70
2021/07/22 08:33:19;;;;;;;14.43;6.07;;;;;;;;;;6188115;28;20047;-69
2021/07/22 08:36:21;;;;;;;8.77;6.50;;;;;;;;;;6180869;28;20471;-67
2021/07/22 08:39:23;;;;;;;11.23;6.90;;;;;;;;;;6190568;28;20046;-66
2021/07/22 08:42:28;;;;;;;10.47;7.00;;;;;;;;;;6181256;28;20050;-65
2021/07/22 08:45:32;;;;;;;11.20;6.97;;;;;;;;;;6184370;28;20465;-69
2021/07/22 08:48:35;;;;;;;11.68;6.93;;;;;;;;;;6188382;28;20501;-66
2021/07/22 08:51:37;;;;;;;12.52;7.13;;;;;;;;;;6182115;28;20498;-65
2021/07/22 08:54:42;;;;;;;8.32;6.07;;;;;;;;;;6190293;28;20061;-68
2021/07/22 08:57:52;;;;;;;11.05;6.43;;;;;;;;;;6185850;28;20124;-66
2021/07/22 09:00:55;;;;;;;12.95;6.40;;;;;;;;;;6183960;28;20129;-66
2021/07/22 09:03:58;;;;;;;9.05;6.20;;;;;;;;;;6153901;28;20069;-66
2021/07/22 09:07:00;;;;;;;8.13;6.40;;;;;;;;;;6182753;28;20051;-66
2021/07/22 09:13:35;;;;;;;8.70;6.27;;;;;;;;;;6194045;28;20038;-67
2021/07/22 09:16:38;;;;;;;8.43;6.57;;;;;;;;;;6177879;28;20051;-65
2021/07/22 09:19:40;;;;;;;7.97;6.05;;;;;;;;;;6191796;28;20050;-65
2021/07/22 09:22:43;;;;;;;10.15;6.70;;;;;;;;;;6180348;28;20422;-70
2021/07/22 09:25:46;;;;;;;10.27;6.47;;;;;;;;;;6184310;28;20046;-65
2021/07/22 09:29:07;;;;;;;11.20;6.20;;;;;;;;;;6168196;28;20054;-65
2021/07/22 09:32:14;;;;;;;10.95;6.78;;;;;;;;;;6179646;28;20046;-66
2021/07/22 09:35:17;;;;;;;10.70;6.30;;;;;;;;;;6177079;28;20050;-71
2021/07/22 09:38:19;;;;;;;9.93;6.47;;;;;;;;;;6184257;28;20053;-66
2021/07/22 09:41:22;;;;;;;10.63;6.20;;;;;;;;;;6175415;28;20065;-68
2021/07/22 09:44:30;;;;;;;9.43;6.50;;;;;;;;;;6191923;28;20054;-66
2021/07/22 09:47:33;;;;;;;10.70;6.35;;;;;;;;;;6180806;28;20132;-67
2021/07/22 09:50:43;;;;;;;8.00;5.72;;;;;;;;;;6179917;28;20077;-66
2021/07/22 09:53:44;;;;;;;8.50;5.60;;;;;;;;;;6188550;28;20042;-66
2021/07/22 09:56:46;;;;;;;12.43;6.00;;;;;;;;;;6164052;28;20054;-66
2021/07/22 09:59:50;;;;;;;7.90;5.97;;;;;;;;;;6167185;28;20058;-65
2021/07/22 10:02:54;;;;;;;10.57;6.63;;;;;;;;;;6156746;28;20079;-69
2021/07/22 10:05:59;;;;;;;13.15;6.10;;;;;;;;;;6159876;28;20050;-65
2021/07/22 10:09:02;;;;;;;10.90;6.38;;;;;;;;;;6163783;28;20046;-66
2021/07/22 10:12:04;;;;;;;8.95;7.13;;;;;;;;;;6159411;28;20495;-66
2021/07/22 10:15:08;;;;;;;11.45;7.30;;;;;;;;;;6167702;28;20534;-70
2021/07/22 10:18:10;;;;;;;10.45;6.20;;;;;;;;;;6179371;28;20096;-72
2021/07/22 10:21:12;;;;;;;10.20;6.85;;;;;;;;;;6179101;28;20077;-66
2021/07/22 10:24:17;;;;;;;8.43;5.90;;;;;;;;;;6189032;28;20050;-70
2021/07/22 10:27:19;;;;;;;9.77;7.65;;;;;;;;;;6176586;28;20047;-67
2021/07/22 10:30:23;;;;;;;11.13;7.75;;;;;;;;;;6188761;28;20065;-68
2021/07/22 10:33:26;;;;;;;10.88;6.28;;;;;;;;;;6176460;28;20077;-65
2021/07/22 10:36:28;;;;;;;7.57;6.53;;;;;;;;;;6180111;28;20507;-66
2021/07/22 10:40:05;;;;;;;10.88;7.20;;;;;;;;;;6188040;28;20135;-67
2021/07/22 10:43:10;;;;;;;8.65;6.25;;;;;;;;;;6178385;28;20050;-69
2021/07/22 10:46:15;;;;;;;8.77;5.88;;;;;;;;;;6181218;28;20048;-66
2021/07/22 10:49:17;;;;;;;7.57;6.18;;;;;;;;;;6183267;28;20494;-66
2021/07/22 10:52:54;;;;;;;7.40;6.32;;;;;;;;;;6179411;28;20057;-66
2021/07/22 10:55:57;;;;;;;10.93;6.53;;;;;;;;;;6180881;28;20046;-67
2021/07/22 10:58:59;;;;;;;13.05;7.07;;;;;;;;;;6193701;28;20046;-70
2021/07/22 11:02:04;;;;;;;12.45;7.05;;;;;;;;;;6183697;28;20074;-66
2021/07/22 11:05:06;;;;;;;12.65;6.20;;;;;;;;;;6182399;28;20042;-69
2021/07/22 11:08:21;;;;;;;9.57;6.45;;;;;;;;;;6183091;28;20556;-65
2021/07/22 11:11:23;;;;;;;8.75;6.68;;;;;;;;;;6177446;28;20087;-65
2021/07/22 11:14:31;;;;;;;;;;;;;;;;;;6201448;28;20059;-67
2021/07/22 11:17:39;;;;;;;11.10;7.57;;;;;;;;;;6171839;28;19922;-65
2021/07/22 11:20:41;;;;;;;9.82;6.85;;;;;;;;;;6174541;28;20065;-67
2021/07/22 11:23:43;;;;;;;10.77;7.18;;;;;;;;;;6189559;28;20093;-66
2021/07/22 11:26:45;;;;;;;7.18;6.47;;;;;;;;;;6180412;28;20092;-67
2021/07/22 11:29:47;;;;;;;9.52;6.78;;;;;;;;;;6188408;28;20150;-67
2021/07/22 11:32:50;;;;;;;11.52;7.30;;;;;;;;;;6174224;28;20042;-65
2021/07/22 11:36:01;;;;;;;11.38;5.97;;;;;;;;;;6179901;28;20042;-66
2021/07/22 11:39:04;;;;;;;10.45;6.35;;;;;;;;;;6189357;28;20050;-66
2021/07/22 11:42:07;;;;;;;10.20;6.45;;;;;;;;;;6181543;28;20058;-68
2021/07/22 11:45:09;;;;;;;9.02;6.20;;;;;;;;;;6180448;28;20090;-70
2021/07/22 11:48:24;;;;;;;8.77;6.53;;;;;;;;;;6177959;28;20302;-66
2021/07/22 11:55:03;;;;;;;9.63;7.20;;;;;;;;;;6166376;28;20057;-66
2021/07/22 11:58:05;;;;;;;9.32;6.82;;;;;;;;;;6179927;28;20046;-67
2021/07/22 12:01:08;;;;;;;8.68;6.18;;;;;;;;;;6161888;28;20053;-68
2021/07/22 12:04:11;;;;;;;9.73;6.95;;;;;;;;;;6180141;28;20057;-67
2021/07/22 12:07:13;;;;;;;9.05;6.25;;;;;;;;;;6173896;28;20046;-67
2021/07/22 12:10:25;;;;;;;10.65;6.70;;;;;;;;;;6179389;28;20077;-71
2021/07/22 12:13:27;;;;;;;9.25;6.15;;;;;;;;;;6182594;28;20136;-68
2021/07/22 12:16:28;;;;;;;11.02;6.60;;;;;;;;;;6176774;28;20105;-69
2021/07/22 12:19:38;;;;;;;8.93;6.65;;;;;;;;;;6182303;28;20054;-72
2021/07/22 12:22:40;;;;;;;8.75;6.15;;;;;;;;;;6174933;28;20061;-67
2021/07/22 12:25:55;;;;;;;9.80;6.55;;;;;;;;;;6179590;28;20895;-66
2021/07/22 12:29:01;;;;;;;9.85;6.50;;;;;;;;;;6189096;28;20492;-66
2021/07/22 12:32:10;;;;;;;10.02;6.63;;;;;;;;;;6170264;28;20502;-67
2021/07/22 12:35:28;;;;;;;8.52;6.35;;;;;;;;;;6180215;28;20058;-72
2021/07/22 12:38:31;;;;;;;15.48;7.10;;;;;;;;;;6186680;28;20050;-67
2021/07/22 12:41:32;;;;;;;8.50;5.90;;;;;;;;;;6179044;28;20055;-70
2021/07/22 12:44:46;;;;;;;8.27;6.03;;;;;;;;;;6186738;28;20054;-66
2021/07/22 12:47:48;;;;;;;7.47;6.20;;;;;;;;;;6160710;28;20042;-66
2021/07/22 12:50:51;;;;;;;12.70;6.50;;;;;;;;;;6149664;28;20042;-66
2021/07/22 12:53:53;;;;;;;9.93;6.65;;;;;;;;;;6162666;28;20625;-70
2021/07/22 12:56:55;;;;;;;7.22;6.53;;;;;;;;;;6154174;28;20079;-65
2021/07/22 13:00:03;;;;;;;14.02;6.70;;;;;;;;;;6169537;28;20062;-66
2021/07/22 13:03:05;;;;;;;9.00;7.30;;;;;;;;;;6170719;28;20042;-66
2021/07/22 13:06:09;;;;;;;9.57;6.43;;;;;;;;;;6176825;28;20133;-66
2021/07/22 13:09:11;;;;;;;8.88;6.30;;;;;;;;;;6185246;28;20062;-67
2021/07/22 13:12:13;;;;;;;10.27;7.30;;;;;;;;;;6178260;28;20128;-66
2021/07/22 13:15:16;;;;;;;10.63;7.03;;;;;;;;;;6180822;28;20185;-70
2021/07/22 13:18:18;;;;;;;9.00;6.70;;;;;;;;;;6182721;28;20525;-71
2021/07/22 13:21:23;;;;;;;8.45;6.88;;;;;;;;;;6186677;28;20058;-66
2021/07/22 13:24:31;;;;;;;10.55;6.93;;;;;;;;;;6191604;28;20050;-66
2021/07/22 13:27:35;;;;;;;11.32;7.07;;;;;;;;;;6182196;28;20129;-69
2021/07/22 13:30:37;;;;;;;11.52;8.05;;;;;;;;;;6182029;28;20046;-66
2021/07/22 13:33:38;;;;;;;11.30;7.20;;;;;;;;;;6181764;28;20084;-69
2021/07/22 13:36:44;;;;;;;12.05;7.38;;;;;;;;;;6181517;28;20442;-67
2021/07/22 13:39:48;;;;;;;9.23;7.10;;;;;;;;;;6189804;28;20058;-67
2021/07/22 13:42:50;;;;;;;11.93;7.60;;;;;;;;;;6179126;28;20128;-69
2021/07/22 13:45:51;;;;;;;12.48;6.93;;;;;;;;;;6179517;28;20137;-68
2021/07/22 13:48:53;;;;;;;8.50;6.50;;;;;;;;;;6182734;28;20389;-67
2021/07/22 13:51:57;;;;;;;15.10;8.02;;;;;;;;;;6179509;28;20081;-67
2021/07/22 13:54:59;;;;;;;12.90;7.43;;;;;;;;;;6178805;28;20098;-67
2021/07/22 13:58:01;;;;;;;10.20;7.25;;;;;;;;;;6182885;28;20052;-66
2021/07/22 14:01:03;;;;;;;12.23;7.88;;;;;;;;;;6178435;28;20073;-71
2021/07/22 14:04:05;;;;;;;9.38;6.95;;;;;;;;;;6182574;28;20053;-71
2021/07/22 14:07:08;;;;;;;9.07;6.47;;;;;;;;;;6180077;28;20055;-66
2021/07/22 14:10:11;;;;;;;11.07;7.30;;;;;;;;;;6186273;28;20478;-71
2021/07/22 14:13:12;;;;;;;12.10;7.13;;;;;;;;;;6182590;28;20403;-67
2021/07/22 14:16:14;;;;;;;10.85;6.45;;;;;;;;;;6174699;28;20185;-69
2021/07/22 14:19:16;;;;;;;8.27;7.15;;;;;;;;;;6183135;28;20045;-67
2021/07/22 14:22:19;;;;;;;9.02;7.07;;;;;;;;;;6179352;28;20050;-70
2021/07/22 14:25:21;;;;;;;12.35;7.35;;;;;;;;;;6180919;28;20054;-71
2021/07/22 14:28:23;;;;;;;9.45;7.10;;;;;;;;;;6186418;28;20166;-69
2021/07/22 14:31:25;;;;;;;10.85;7.15;;;;;;;;;;6172075;28;20058;-67
2021/07/22 14:34:28;;;;;;;10.10;7.18;;;;;;;;;;6184725;28;20189;-72
2021/07/22 14:37:31;;;;;;;8.15;7.30;;;;;;;;;;6171107;28;20487;-71
2021/07/22 14:40:32;;;;;;;9.27;7.30;;;;;;;;;;6182146;28;20081;-71
2021/07/22 14:43:34;;;;;;;9.50;7.43;;;;;;;;;;6187525;28;20593;-70
2021/07/22 14:46:36;;;;;;;11.80;7.50;;;;;;;;;;6179929;28;20070;-66
2021/07/22 14:49:38;;;;;;;15.63;7.28;;;;;;;;;;6185078;28;20424;-67
2021/07/22 14:52:41;;;;;;;11.27;7.60;;;;;;;;;;6178059;28;20071;-66
2021/07/22 14:55:43;;;;;;;12.13;7.72;;;;;;;;;;6171894;28;20045;-67
2021/07/22 14:58:44;;;;;;;15.07;7.35;;;;;;;;;;6186668;28;20057;-66
2021/07/22 15:01:46;;;;;;;13.50;7.22;;;;;;;;;;6170409;28;20125;-66
2021/07/22 15:04:48;;;;;;;12.45;7.10;;;;;;;;;;6184899;28;20553;-67
2021/07/22 15:07:51;;;;;;;9.73;6.80;;;;;;;;;;6178088;28;20050;-69
2021/07/22 15:10:52;;;;;;;10.48;7.47;;;;;;;;;;6178786;28;20498;-66
2021/07/22 15:13:54;;;;;;;;;;;;;;;;;;6189178;28;20173;-70
2021/07/22 15:16:56;;;;;;;11.63;8.32;;;;;;;;;;6172065;28;20290;-66
2021/07/22 15:19:58;;;;;;;10.18;7.32;;;;;;;;;;6183738;28;20096;-71
2021/07/22 15:23:01;;;;;;;12.75;7.43;;;;;;;;;;6175475;28;20490;-67
2021/07/22 15:26:03;;;;;;;15.10;8.10;;;;;;;;;;6180801;28;20054;-66
2021/07/22 15:29:04;;;;;;;10.27;6.95;;;;;;;;;;6188401;28;20057;-66
2021/07/22 15:32:07;;;;;;;10.13;7.13;;;;;;;;;;6174122;28;20050;-66
2021/07/22 15:35:10;;;;;;;10.00;7.22;;;;;;;;;;6184109;28;20513;-71
2021/07/22 15:38:13;;;;;;;10.77;7.22;;;;;;;;;;6185573;28;20050;-66
2021/07/22 15:41:14;;;;;;;11.88;6.90;;;;;;;;;;6180347;28;20050;-66
2021/07/22 15:44:16;;;;;;;14.07;8.07;;;;;;;;;;6188854;28;20050;-65
2021/07/22 15:47:17;;;;;;;7.38;6.43;;;;;;;;;;6173752;28;20168;-68
2021/07/22 15:50:19;;;;;;;12.13;6.65;;;;;;;;;;6184812;28;20074;-71
2021/07/22 15:53:22;;;;;;;15.95;7.60;;;;;;;;;;6181548;28;20042;-65
2021/07/22 15:56:24;;;;;;;10.98;7.20;;;;;;;;;;6182630;28;20051;-66
2021/07/22 15:59:26;;;;;;;9.68;6.93;;;;;;;;;;6193414;28;20073;-66
2021/07/22 16:02:27;;;;;;;9.35;7.55;;;;;;;;;;6168432;28;20106;-65
2021/07/22 16:05:29;;;;;;;11.52;7.55;;;;;;;;;;6171963;28;20070;-65
2021/07/22 16:08:33;;;;;;;9.77;6.90;;;;;;;;;;6186189;28;20068;-68
2021/07/22 16:11:35;;;;;;;10.95;7.68;;;;;;;;;;6178267;28;20577;-67
2021/07/22 16:14:36;;;;;;;11.02;7.72;;;;;;;;;;6186166;28;20597;-67
2021/07/22 16:17:38;;;;;;;12.07;7.53;;;;;;;;;;6175221;28;20065;-66
2021/07/22 16:20:40;;;;;;;11.20;7.15;;;;;;;;;;6175492;28;21077;-66
2021/07/22 16:23:43;;;;;;;12.10;6.97;;;;;;;;;;6188027;28;20078;-65
2021/07/22 16:26:45;;;;;;;9.57;6.95;;;;;;;;;;6180189;28;20064;-65
2021/07/22 16:29:47;;;;;;;11.88;7.15;;;;;;;;;;6188615;28;20082;-66
2021/07/22 16:32:48;;;;;;;12.90;7.20;;;;;;;;;;6174024;28;20462;-70
2021/07/22 16:35:50;;;;;;;9.20;6.47;;;;;;;;;;6175691;28;20179;-66
2021/07/22 16:38:53;;;;;;;9.85;6.90;;;;;;;;;;6183619;28;20047;-65
2021/07/22 16:41:55;;;;;;;14.65;8.07;;;;;;;;;;6182026;28;20124;-71
2021/07/22 16:44:58;;;;;;;9.97;7.13;;;;;;;;;;6183966;28;20133;-66
2021/07/22 16:48:00;;;;;;;11.35;6.68;;;;;;;;;;6172417;28;20043;-68
2021/07/22 16:51:01;;;;;;;9.40;6.30;;;;;;;;;;6177585;28;20105;-68
2021/07/22 16:54:04;;;;;;;11.93;6.87;;;;;;;;;;6190506;28;20062;-66
2021/07/22 16:57:06;;;;;;;12.95;7.65;;;;;;;;;;6182344;28;20947;-66
2021/07/22 17:00:09;;;;;;;14.13;7.53;;;;;;;;;;6188058;28;20132;-69
2021/07/22 17:03:10;;;;;;;;;;;;;;;;;;6179479;28;20113;-65
2021/07/22 17:06:12;;;;;;;10.43;6.78;;;;;;;;;;6163076;28;19984;-65
2021/07/22 17:09:15;;;;;;;11.27;6.33;;;;;;;;;;6189801;28;20047;-70
2021/07/22 17:12:16;;;;;;;9.60;7.45;;;;;;;;;;6184882;28;20645;-69
2021/07/22 17:15:18;;;;;;;9.48;7.03;;;;;;;;;;6186011;28;20406;-71
2021/07/22 17:18:20;;;;;;;12.45;7.00;;;;;;;;;;6184051;28;20193;-71
2021/07/22 17:21:21;;;;;;;10.87;6.43;;;;;;;;;;6177600;28;20066;-65
2021/07/22 17:24:24;;;;;;;11.50;7.13;;;;;;;;;;6190505;28;20066;-67
2021/07/22 17:27:26;;;;;;;8.80;7.90;;;;;;;;;;6183446;28;20057;-65
2021/07/22 17:30:28;;;;;;;12.87;7.37;;;;;;;;;;6182217;28;20106;-66
2021/07/22 17:33:29;;;;;;;10.40;6.53;;;;;;;;;;6180598;28;20140;-65
2021/07/22 17:36:31;;;;;;;17.05;7.72;;;;;;;;;;6181783;28;20070;-66
2021/07/22 17:39:34;;;;;;;10.73;7.07;;;;;;;;;;6189975;28;20486;-65
2021/07/22 17:42:36;;;;;;;11.68;7.22;;;;;;;;;;6184260;28;20054;-68
2021/07/22 17:45:38;;;;;;;10.02;7.07;;;;;;;;;;6176998;28;20113;-66
2021/07/22 17:48:39;;;;;;;9.20;6.97;;;;;;;;;;6186338;28;20121;-66
2021/07/22 17:51:42;;;;;;;11.80;7.50;;;;;;;;;;6181009;28;20133;-65
2021/07/22 17:54:45;;;;;;;11.88;7.32;;;;;;;;;;6186688;28;20047;-68
2021/07/22 17:57:47;;;;;;;11.85;7.65;;;;;;;;;;6180641;28;20059;-66
2021/07/22 18:00:49;;;;;;;13.32;7.38;;;;;;;;;;6177772;28;20178;-66
2021/07/22 18:03:50;;;;;;;9.63;7.70;;;;;;;;;;6183229;28;20878;-66
2021/07/22 18:06:52;;;;;;;12.65;7.25;;;;;;;;;;6181476;28;20073;-66
2021/07/22 18:09:55;;;;;;;12.93;7.57;;;;;;;;;;6188876;28;20046;-67
2021/07/22 18:12:57;;;;;;;10.27;7.68;;;;;;;;;;6179443;28;20057;-66
2021/07/22 18:15:58;;;;;;;16.17;8.15;;;;;;;;;;6174034;28;20065;-65
2021/07/22 18:19:01;;;;;;;10.18;7.45;;;;;;;;;;6183231;28;20050;-66